Airfield :
LOGIN :

Register | Disclaimer

   EN    FR    IT 

 










Legend :    VFR   Marginal VFR   IFR   Intensive IFR   Very Intensive IFR
Visi :
Ceiling :
>= 8 km
>= 3000ft
5 to 8 km
1000 to 3000 ft
1500m to 5 km
500 to 1000 ft
800 to 1500m
200 to 500 ft
< 800m
< 200 ft
Symbols :   Thunderstorms  Fog  Heavy snow  Heavy precipitations  Wind > 20 kt
SIGMETs :     Misc.  Thunderstorms  Icing  Turbulence  Mountain Waves  Volcanic Ashes






- Airport Elevation : 659 ft
- IATA code : LGG


EBLG - Liège

CURRENT METAR :
  • 280350Z 18008KT 9000 -RADZ SCT004 BKN006 05/04 Q1006 TEMPO 2500 RADZ BKN003

EXPIRED METARs :
  • 280320Z 18009KT 7000 -RADZ SCT003 BKN005 05/04 Q1007 TEMPO 2500 RADZ BKN003
  • 270250Z 18012KT 6000 -SN SCT007 BKN011 00/M01 Q1014 TEMPO 3000 -SN BKN008
  • 280150Z 18008KT 4700 BR -DZ SCT003 BKN004 04/03 Q1009 TEMPO 2000 -DZ BKN005
  • 280120Z 18008KT 2300 BR -DZ SCT002 BKN003 04/03 Q1009 TEMPO 1200 -DZ

TAF TAF EBLG
Valid from the 27 at 18:00 until the 29 at 00:00 UTC


271710Z 2718/2824 22006KT 5000 BR SCT003 BKN006
TEMPO 2718/2802 1200 -DZ BR BKN002
PROB30
TEMPO 2718/2802 0400 FG -DZ BKN001
TEMPO 2802/2811 2000 RADZ SCT002 BKN003
BECMG 2811/2813 26015G25KT 9999 NSW SCT006 BKN011
PROB30
TEMPO 2812/2818 3500 SHRA BKN005 BKN010TCU
TEMPO 2816/2824 SCT015 BKN035
BECMG 2820/2822 24010KT



MET'MAP, your aeronautical weather chart ! - Copyright ORBIFLY December 2007 - Disclaimer

ORBIFLY MET'MAP TEAM :

Programming & Development : Alexandra Zaïnal
Concept & original design : Baudouin d'Aumeries
Assistance for programming : Marc-Olivier Méhu
Technical & hardware support : Manuel Goepfert

Contact : metmap@orbifly.com




SOURCES & CREDITS :

   NOAA